createdAt,value
2023-02-22T00:00:19.464Z,3.28
2023-02-22T00:05:21.028Z,3.72
2023-02-22T00:15:28.073Z,4.68
2023-02-22T00:20:29.786Z,4.35
2023-02-22T00:25:31.463Z,6.05
2023-02-22T00:30:34.219Z,6.82
2023-02-22T00:35:35.711Z,6.50
2023-02-22T00:40:37.166Z,5.22
2023-02-22T00:45:38.631Z,4.40
2023-02-22T00:50:40.197Z,4.32
2023-02-22T00:55:42.839Z,3.03
2023-02-22T01:05:47.184Z,1.92
2023-02-22T01:10:49.497Z,2.38
2023-02-22T01:15:51.347Z,3.25
2023-02-22T01:20:52.792Z,3.90
2023-02-22T01:25:54.449Z,2.30
2023-02-22T01:35:59.995Z,3.63
2023-02-22T01:41:02.348Z,2.97
2023-02-22T01:46:21.374Z,4.03
2023-02-22T01:51:37.431Z,4.78
2023-02-22T01:56:42.573Z,3.67
2023-02-22T02:01:44.671Z,3.40
2023-02-22T02:06:47.868Z,2.67
2023-02-22T02:11:49.614Z,3.00
2023-02-22T02:16:53.335Z,3.67
2023-02-22T02:22:17.841Z,3.45
2023-02-22T02:27:26.594Z,3.28
2023-02-22T02:33:03.488Z,3.97
2023-02-22T02:38:39.949Z,3.03
2023-02-22T02:43:58.453Z,4.22
2023-02-22T02:49:11.615Z,4.50
2023-02-22T02:54:15.109Z,3.60
2023-02-22T02:59:37.152Z,3.97
2023-02-22T03:05:02.640Z,4.28
2023-02-22T03:10:07.276Z,4.25
2023-02-22T03:15:36.516Z,3.13
2023-02-22T03:20:43.087Z,4.10
2023-02-22T03:25:51.334Z,4.43
2023-02-22T03:31:04.467Z,3.45
2023-02-22T03:36:31.997Z,3.97
2023-02-22T03:41:38.608Z,4.25
2023-02-22T03:46:42.451Z,3.97
2023-02-22T03:51:44.999Z,3.55
2023-02-22T03:56:54.913Z,3.38
2023-02-22T04:01:57.053Z,2.72
2023-02-22T04:06:58.508Z,4.20
2023-02-22T04:12:01.356Z,1.77
2023-02-22T04:17:06.810Z,2.92
2023-02-22T04:22:08.761Z,3.92
2023-02-22T04:27:10.317Z,3.05
2023-02-22T04:32:13.146Z,4.03
2023-02-22T04:37:14.745Z,3.92
2023-02-22T04:47:17.873Z,3.90
2023-02-22T04:52:19.428Z,3.83
2023-02-22T04:57:20.946Z,4.32
2023-02-22T05:02:22.760Z,4.28
2023-02-22T05:12:27.405Z,3.10
2023-02-22T05:17:28.865Z,3.70
2023-02-22T05:22:30.358Z,2.83
2023-02-22T05:27:31.805Z,4.10
2023-02-22T05:32:33.244Z,2.75
2023-02-22T05:37:34.737Z,3.90
2023-02-22T05:42:36.182Z,3.70
2023-02-22T05:47:37.618Z,4.13
2023-02-22T05:52:39.329Z,3.60
2023-02-22T05:57:40.846Z,3.45
2023-02-22T06:02:42.305Z,4.30
2023-02-22T06:07:43.761Z,3.97
2023-02-22T06:12:45.890Z,4.78
2023-02-22T06:17:48.138Z,3.90
2023-02-22T06:22:51.509Z,4.55
2023-02-22T06:27:53.482Z,3.63
2023-02-22T06:32:54.970Z,3.13
2023-02-22T06:37:56.413Z,3.75
2023-02-22T06:42:58.500Z,4.32
2023-02-22T06:47:59.935Z,5.15
2023-02-22T06:53:01.639Z,6.57
2023-02-22T07:03:06.230Z,2.25
2023-02-22T07:08:08.133Z,4.63
2023-02-22T07:13:09.610Z,4.88
2023-02-22T07:18:12.084Z,5.30
2023-02-22T07:23:15.239Z,5.22
2023-02-22T07:28:16.704Z,6.30
2023-02-22T07:33:18.364Z,7.32
2023-02-22T07:43:23.212Z,7.28
2023-02-22T07:48:29.502Z,6.53
2023-02-22T07:53:33.632Z,5.13
2023-02-22T07:58:35.730Z,6.93
2023-02-22T08:03:39.881Z,7.47
2023-02-22T08:08:43.690Z,5.32
2023-02-22T08:13:45.176Z,8.20
2023-02-22T08:18:46.693Z,8.70
2023-02-22T08:23:54.683Z,9.15
2023-02-22T08:33:58.524Z,8.68
2023-02-22T08:39:00.180Z,9.15
2023-02-22T08:49:07.193Z,9.20
2023-02-22T08:54:08.675Z,10.00
2023-02-22T08:59:10.436Z,8.30
2023-02-22T09:04:11.894Z,9.30
2023-02-22T09:09:13.346Z,8.05
2023-02-22T09:14:16.454Z,7.43
2023-02-22T09:19:17.922Z,7.00
2023-02-22T09:24:20.391Z,7.95
2023-02-22T09:29:24.245Z,6.80
2023-02-22T09:34:29.613Z,7.38
2023-02-22T09:39:31.201Z,8.75
2023-02-22T09:44:53.709Z,7.00
2023-02-22T09:49:58.325Z,6.93
2023-02-22T09:55:10.060Z,6.13
2023-02-22T10:00:19.959Z,7.28
2023-02-22T10:05:27.926Z,7.90
2023-02-22T10:24:02.006Z,8.10
2023-02-22T10:30:24.960Z,6.57
2023-02-22T10:36:11.918Z,7.15
2023-02-22T10:42:13.396Z,6.30
2023-02-22T11:01:23.066Z,6.68
2023-02-22T11:06:31.578Z,7.05
2023-02-22T11:11:34.041Z,6.72
2023-02-22T11:16:38.934Z,6.13
2023-02-22T11:21:40.752Z,7.05
2023-02-22T11:26:46.702Z,6.93
2023-02-22T11:31:51.673Z,7.38
2023-02-22T11:36:53.306Z,7.20
2023-02-22T11:41:56.609Z,5.90
2023-02-22T11:47:12.012Z,5.90
2023-02-22T11:52:37.272Z,6.32
2023-02-22T11:57:55.540Z,4.43
2023-02-22T12:03:52.742Z,5.18
2023-02-22T12:09:14.066Z,5.15
2023-02-22T12:14:37.427Z,5.28
2023-02-22T12:19:47.137Z,3.72
2023-02-22T12:25:07.738Z,3.10
2023-02-22T12:30:23.571Z,2.10
2023-02-22T12:35:34.831Z,2.30
2023-02-22T12:41:03.948Z,2.20
2023-02-22T12:46:12.726Z,3.30
2023-02-22T12:51:53.490Z,3.20
2023-02-22T12:57:09.856Z,3.28
2023-02-22T13:02:20.664Z,3.78
2023-02-22T13:07:38.394Z,5.45
2023-02-22T13:13:04.852Z,25.02
2023-02-22T13:18:14.788Z,6.47
2023-02-22T13:23:38.949Z,6.03
2023-02-22T13:28:49.491Z,5.28
2023-02-22T13:34:21.539Z,4.03
2023-02-22T13:39:41.928Z,4.28
2023-02-22T13:45:20.691Z,3.88
2023-02-22T13:50:35.550Z,4.25
2023-02-22T13:55:40.934Z,4.97
2023-02-22T14:00:51.162Z,4.43
2023-02-22T14:05:56.029Z,4.03
2023-02-22T14:10:59.198Z,3.35
2023-02-22T14:16:00.739Z,4.13
2023-02-22T14:21:10.737Z,3.88
2023-02-22T14:31:54.069Z,3.58
2023-02-22T14:38:13.681Z,3.63
2023-02-22T14:43:36.613Z,3.50
2023-02-22T14:48:42.825Z,3.50
2023-02-22T14:53:47.689Z,3.70
2023-02-22T14:58:55.259Z,4.32
2023-02-22T15:04:07.292Z,4.25
2023-02-22T15:09:25.725Z,6.70
2023-02-22T15:14:30.521Z,8.55
2023-02-22T15:19:35.188Z,6.90
2023-02-22T15:24:37.869Z,8.70
2023-02-22T15:29:44.426Z,7.93
2023-02-22T15:34:45.952Z,7.78
2023-02-22T15:39:48.897Z,7.55
2023-02-22T15:44:55.030Z,7.40
2023-02-22T15:50:23.855Z,7.90
2023-02-22T15:55:27.351Z,8.27
2023-02-22T16:00:36.442Z,6.75
2023-02-22T16:05:45.986Z,5.88
2023-02-22T16:10:58.024Z,5.65
2023-02-22T16:16:02.955Z,5.30
2023-02-22T16:21:12.882Z,5.15
2023-02-22T16:26:29.720Z,6.47
2023-02-22T16:31:39.105Z,5.32
2023-02-22T16:36:43.341Z,5.13
2023-02-22T16:41:45.159Z,6.38
2023-02-22T16:46:46.697Z,5.50
2023-02-22T16:51:54.633Z,5.55
2023-02-22T16:57:00.275Z,5.25
2023-02-22T17:02:01.883Z,4.55
2023-02-22T17:07:05.220Z,6.80
2023-02-22T17:12:07.010Z,5.88
2023-02-22T17:17:11.842Z,5.63
2023-02-22T17:22:18.614Z,5.03
2023-02-22T17:27:20.112Z,5.10
2023-02-22T17:32:21.648Z,5.50
2023-02-22T17:37:25.565Z,4.78
2023-02-22T17:42:27.022Z,5.28
2023-02-22T17:47:28.471Z,5.88
2023-02-22T17:52:30.219Z,5.78
2023-02-22T17:57:31.819Z,5.35
2023-02-22T18:02:34.552Z,5.65
2023-02-22T18:07:36.797Z,5.35
2023-02-22T18:12:39.191Z,6.13
2023-02-22T18:17:40.677Z,7.10
2023-02-22T18:27:44.745Z,6.90
2023-02-22T18:32:46.207Z,7.60
2023-02-22T18:42:49.302Z,6.35
2023-02-22T18:47:50.921Z,5.97
2023-02-22T18:52:52.366Z,8.95
2023-02-22T19:02:57.733Z,6.75
2023-02-22T19:07:59.265Z,9.20
2023-02-22T19:18:02.129Z,8.25
2023-02-22T19:28:05.040Z,7.47
2023-02-22T19:38:08.292Z,6.45
2023-02-22T19:43:09.735Z,9.52
2023-02-22T19:53:14.021Z,9.98
2023-02-22T19:58:15.472Z,7.88
2023-02-22T20:03:23.467Z,8.70
2023-02-22T20:08:26.223Z,9.45
2023-02-22T20:13:27.968Z,10.50
2023-02-22T20:18:29.688Z,9.00
2023-02-22T20:23:31.132Z,9.18
2023-02-22T20:33:35.661Z,10.23
2023-02-22T20:38:38.534Z,7.68
2023-02-22T20:43:40.302Z,10.23
2023-02-22T20:48:41.787Z,9.63
2023-02-22T20:53:44.879Z,9.50
2023-02-22T20:58:46.958Z,8.45
2023-02-22T21:03:49.701Z,10.98
2023-02-22T21:08:54.025Z,11.30
2023-02-22T21:13:55.540Z,8.88
2023-02-22T21:24:02.412Z,9.90
2023-02-22T21:34:06.652Z,9.60
2023-02-22T21:39:17.916Z,8.65
2023-02-22T21:44:19.854Z,8.98
2023-02-22T21:49:24.981Z,10.30
2023-02-22T21:54:27.953Z,9.80
2023-02-22T21:59:29.427Z,9.05
2023-02-22T22:04:32.477Z,10.20
2023-02-22T22:09:38.348Z,8.88
2023-02-22T22:14:40.228Z,9.90
2023-02-22T22:19:44.366Z,9.70
2023-02-22T22:24:46.038Z,9.02
2023-02-22T22:29:47.502Z,8.77
2023-02-22T22:34:49.327Z,9.50
2023-02-22T22:39:50.771Z,9.73
2023-02-22T22:44:52.226Z,9.02
2023-02-22T22:50:01.228Z,9.88
2023-02-22T22:55:02.748Z,10.10
2023-02-22T23:00:26.402Z,11.32
2023-02-22T23:05:28.715Z,11.30
2023-02-22T23:10:39.227Z,10.20
2023-02-22T23:15:47.539Z,10.40
2023-02-22T23:20:55.061Z,10.90
2023-02-22T23:26:20.393Z,11.40
2023-02-22T23:31:22.294Z,10.15
2023-02-22T23:36:24.723Z,9.95
2023-02-22T23:41:28.586Z,8.77
2023-02-22T23:46:32.882Z,10.50
2023-02-22T23:51:39.288Z,8.90
2023-02-22T23:56:47.285Z,7.70
